Terminal Aerodrome Forecast
Issued by NWS Tampa Bay Area, FL

Home | Current Version | Previous Version | Text Only | Print | Product List | Glossary On
Versions: 1 2 3 4 5 6 7 8 9 10 11 12
000
FTUS42 KTBW 242300
TAFFMY
TAF
KFMY 242336Z 2500/2524 05007KT P6SM SKC
     FM250400 02005KT P6SM SKC
     FM251400 03009KT P6SM SKC
     FM251800 01009KT P6SM SCT040=

USA.gov is the U.S. government's official web portal to all federal, state and local government web resources and services.